sensor_id;sensor_type;location;lat;lon;timestamp;P1;durP1;ratioP1;P2;durP2;ratioP2
3085;SDS011;52812;48.960;9.108;2022-12-26T00:00:32;13.87;;;7.37;;
3085;SDS011;52812;48.960;9.108;2022-12-26T00:02:57;9.00;;;5.13;;
3085;SDS011;52812;48.960;9.108;2022-12-26T00:05:23;17.47;;;7.13;;
3085;SDS011;52812;48.960;9.108;2022-12-26T00:07:49;11.20;;;5.00;;
3085;SDS011;52812;48.960;9.108;2022-12-26T00:10:15;22.10;;;8.07;;
3085;SDS011;52812;48.960;9.108;2022-12-26T00:12:40;10.93;;;6.43;;
3085;SDS011;52812;48.960;9.108;2022-12-26T00:15:06;41.13;;;17.00;;
3085;SDS011;52812;48.960;9.108;2022-12-26T00:17:32;9.37;;;5.33;;
3085;SDS011;52812;48.960;9.108;2022-12-26T00:19:57;49.13;;;19.10;;
3085;SDS011;52812;48.960;9.108;2022-12-26T00:22:23;7.87;;;5.07;;
3085;SDS011;52812;48.960;9.108;2022-12-26T00:24:49;7.13;;;5.00;;
3085;SDS011;52812;48.960;9.108;2022-12-26T00:27:14;5.47;;;3.90;;
3085;SDS011;52812;48.960;9.108;2022-12-26T00:29:40;5.83;;;3.53;;
3085;SDS011;52812;48.960;9.108;2022-12-26T00:32:05;4.50;;;3.90;;
3085;SDS011;52812;48.960;9.108;2022-12-26T00:34:31;4.30;;;3.43;;
3085;SDS011;52812;48.960;9.108;2022-12-26T00:36:57;4.33;;;2.90;;
3085;SDS011;52812;48.960;9.108;2022-12-26T00:39:22;4.03;;;3.33;;
3085;SDS011;52812;48.960;9.108;2022-12-26T00:41:48;4.17;;;3.40;;
3085;SDS011;52812;48.960;9.108;2022-12-26T00:44:14;4.87;;;3.37;;
3085;SDS011;52812;48.960;9.108;2022-12-26T00:46:39;4.30;;;3.10;;
3085;SDS011;52812;48.960;9.108;2022-12-26T00:49:05;4.83;;;3.43;;
3085;SDS011;52812;48.960;9.108;2022-12-26T00:51:30;5.30;;;3.87;;
3085;SDS011;52812;48.960;9.108;2022-12-26T00:53:56;5.43;;;3.53;;
3085;SDS011;52812;48.960;9.108;2022-12-26T00:56:22;5.53;;;3.97;;
3085;SDS011;52812;48.960;9.108;2022-12-26T00:58:47;6.00;;;4.03;;
3085;SDS011;52812;48.960;9.108;2022-12-26T01:01:14;4.23;;;3.27;;
3085;SDS011;52812;48.960;9.108;2022-12-26T01:03:45;4.20;;;3.40;;
3085;SDS011;52812;48.960;9.108;2022-12-26T01:06:12;5.63;;;3.20;;
3085;SDS011;52812;48.960;9.108;2022-12-26T01:08:38;6.13;;;3.77;;
3085;SDS011;52812;48.960;9.108;2022-12-26T01:11:05;5.03;;;3.97;;
3085;SDS011;52812;48.960;9.108;2022-12-26T01:13:33;4.47;;;3.60;;
3085;SDS011;52812;48.960;9.108;2022-12-26T01:15:59;5.43;;;3.43;;
3085;SDS011;52812;48.960;9.108;2022-12-26T01:18:24;3.80;;;3.20;;
3085;SDS011;52812;48.960;9.108;2022-12-26T01:20:50;4.63;;;3.50;;
3085;SDS011;52812;48.960;9.108;2022-12-26T01:23:21;4.47;;;3.80;;
3085;SDS011;52812;48.960;9.108;2022-12-26T01:25:46;4.97;;;3.53;;
3085;SDS011;52812;48.960;9.108;2022-12-26T01:28:12;5.03;;;3.70;;
3085;SDS011;52812;48.960;9.108;2022-12-26T01:30:38;4.13;;;3.27;;
3085;SDS011;52812;48.960;9.108;2022-12-26T01:33:03;4.80;;;3.40;;
3085;SDS011;52812;48.960;9.108;2022-12-26T01:35:29;4.50;;;3.40;;
3085;SDS011;52812;48.960;9.108;2022-12-26T01:37:55;4.33;;;3.40;;
3085;SDS011;52812;48.960;9.108;2022-12-26T01:40:20;6.53;;;3.90;;
3085;SDS011;52812;48.960;9.108;2022-12-26T01:42:46;4.30;;;3.47;;
3085;SDS011;52812;48.960;9.108;2022-12-26T01:45:28;5.07;;;3.50;;
3085;SDS011;52812;48.960;9.108;2022-12-26T01:51:01;4.43;;;3.40;;
3085;SDS011;52812;48.960;9.108;2022-12-26T01:53:33;6.97;;;5.33;;
3085;SDS011;52812;48.960;9.108;2022-12-26T01:56:07;5.47;;;3.63;;
3085;SDS011;52812;48.960;9.108;2022-12-26T01:58:41;5.53;;;3.53;;
3085;SDS011;52812;48.960;9.108;2022-12-26T02:01:10;4.30;;;3.37;;
3085;SDS011;52812;48.960;9.108;2022-12-26T02:03:36;6.00;;;4.07;;
3085;SDS011;52812;48.960;9.108;2022-12-26T02:06:23;4.47;;;3.30;;
3085;SDS011;52812;48.960;9.108;2022-12-26T02:08:48;5.00;;;3.67;;
3085;SDS011;52812;48.960;9.108;2022-12-26T02:11:21;4.10;;;3.40;;
3085;SDS011;52812;48.960;9.108;2022-12-26T02:13:48;4.50;;;3.53;;
3085;SDS011;52812;48.960;9.108;2022-12-26T02:16:15;5.63;;;3.90;;
3085;SDS011;52812;48.960;9.108;2022-12-26T02:18:42;4.10;;;3.43;;
3085;SDS011;52812;48.960;9.108;2022-12-26T02:29:32;5.70;;;3.60;;
3085;SDS011;52812;48.960;9.108;2022-12-26T02:46:09;5.80;;;3.87;;
3085;SDS011;52812;48.960;9.108;2022-12-26T02:51:47;5.00;;;3.73;;
3085;SDS011;52812;48.960;9.108;2022-12-26T02:57:45;5.50;;;4.07;;
3085;SDS011;52812;48.960;9.108;2022-12-26T03:00:56;7.93;;;5.50;;
3085;SDS011;52812;48.960;9.108;2022-12-26T03:03:46;7.10;;;4.90;;
3085;SDS011;52812;48.960;9.108;2022-12-26T03:06:33;4.90;;;3.97;;
3085;SDS011;52812;48.960;9.108;2022-12-26T03:09:21;4.30;;;3.50;;
3085;SDS011;52812;48.960;9.108;2022-12-26T03:15:04;4.43;;;3.50;;
3085;SDS011;52812;48.960;9.108;2022-12-26T03:20:20;5.90;;;3.53;;
3085;SDS011;52812;48.960;9.108;2022-12-26T03:22:59;4.87;;;3.27;;
3085;SDS011;52812;48.960;9.108;2022-12-26T03:28:51;4.17;;;3.37;;
3085;SDS011;52812;48.960;9.108;2022-12-26T03:31:37;3.60;;;3.10;;
3085;SDS011;52812;48.960;9.108;2022-12-26T03:34:04;4.83;;;3.90;;
3085;SDS011;52812;48.960;9.108;2022-12-26T03:42:41;6.07;;;3.70;;
3085;SDS011;52812;48.960;9.108;2022-12-26T03:51:41;4.37;;;3.80;;
3085;SDS011;52812;48.960;9.108;2022-12-26T03:57:38;4.40;;;3.30;;
3085;SDS011;52812;48.960;9.108;2022-12-26T04:00:33;3.83;;;3.23;;
3085;SDS011;52812;48.960;9.108;2022-12-26T04:03:18;4.70;;;3.83;;
3085;SDS011;52812;48.960;9.108;2022-12-26T04:06:07;5.07;;;3.40;;
3085;SDS011;52812;48.960;9.108;2022-12-26T04:09:10;5.33;;;3.30;;
3085;SDS011;52812;48.960;9.108;2022-12-26T04:11:59;4.43;;;3.10;;
3085;SDS011;52812;48.960;9.108;2022-12-26T04:14:47;5.43;;;3.60;;
3085;SDS011;52812;48.960;9.108;2022-12-26T04:17:44;3.83;;;3.10;;
3085;SDS011;52812;48.960;9.108;2022-12-26T04:23:59;3.40;;;3.07;;
3085;SDS011;52812;48.960;9.108;2022-12-26T04:26:53;3.57;;;3.20;;
3085;SDS011;52812;48.960;9.108;2022-12-26T04:29:41;6.00;;;4.00;;
3085;SDS011;52812;48.960;9.108;2022-12-26T04:35:28;3.50;;;2.93;;
3085;SDS011;52812;48.960;9.108;2022-12-26T04:38:19;4.03;;;3.17;;
3085;SDS011;52812;48.960;9.108;2022-12-26T04:41:07;4.63;;;3.30;;
3085;SDS011;52812;48.960;9.108;2022-12-26T04:43:53;3.60;;;2.77;;
3085;SDS011;52812;48.960;9.108;2022-12-26T04:46:48;3.60;;;3.20;;
3085;SDS011;52812;48.960;9.108;2022-12-26T04:49:16;3.67;;;3.10;;
3085;SDS011;52812;48.960;9.108;2022-12-26T04:52:02;5.17;;;3.70;;
3085;SDS011;52812;48.960;9.108;2022-12-26T04:54:29;5.60;;;3.63;;
3085;SDS011;52812;48.960;9.108;2022-12-26T04:56:55;5.27;;;3.70;;
3085;SDS011;52812;48.960;9.108;2022-12-26T04:59:21;4.23;;;3.20;;
3085;SDS011;52812;48.960;9.108;2022-12-26T05:01:47;4.30;;;3.20;;
3085;SDS011;52812;48.960;9.108;2022-12-26T05:04:32;5.63;;;3.00;;
3085;SDS011;52812;48.960;9.108;2022-12-26T05:10:18;3.50;;;2.93;;
3085;SDS011;52812;48.960;9.108;2022-12-26T05:12:45;3.73;;;2.93;;
3085;SDS011;52812;48.960;9.108;2022-12-26T05:15:12;4.67;;;2.97;;
3085;SDS011;52812;48.960;9.108;2022-12-26T05:17:38;3.77;;;3.10;;
3085;SDS011;52812;48.960;9.108;2022-12-26T05:20:22;4.40;;;3.13;;
3085;SDS011;52812;48.960;9.108;2022-12-26T05:23:11;4.07;;;3.00;;
3085;SDS011;52812;48.960;9.108;2022-12-26T05:26:00;5.77;;;3.30;;
3085;SDS011;52812;48.960;9.108;2022-12-26T05:28:44;6.10;;;3.60;;
3085;SDS011;52812;48.960;9.108;2022-12-26T05:31:15;3.30;;;2.97;;
3085;SDS011;52812;48.960;9.108;2022-12-26T05:33:43;5.30;;;4.00;;
3085;SDS011;52812;48.960;9.108;2022-12-26T05:36:35;7.13;;;4.73;;
3085;SDS011;52812;48.960;9.108;2022-12-26T05:39:06;3.80;;;3.07;;
3085;SDS011;52812;48.960;9.108;2022-12-26T05:41:33;4.27;;;3.10;;
3085;SDS011;52812;48.960;9.108;2022-12-26T05:43:58;4.43;;;3.50;;
3085;SDS011;52812;48.960;9.108;2022-12-26T05:46:24;6.70;;;3.80;;
3085;SDS011;52812;48.960;9.108;2022-12-26T05:48:50;6.47;;;3.90;;
3085;SDS011;52812;48.960;9.108;2022-12-26T05:51:15;4.00;;;3.47;;
3085;SDS011;52812;48.960;9.108;2022-12-26T05:53:41;4.80;;;2.93;;
3085;SDS011;52812;48.960;9.108;2022-12-26T05:56:09;3.70;;;3.10;;
3085;SDS011;52812;48.960;9.108;2022-12-26T05:58:36;4.80;;;3.40;;
3085;SDS011;52812;48.960;9.108;2022-12-26T06:01:03;2.70;;;2.47;;
3085;SDS011;52812;48.960;9.108;2022-12-26T06:03:35;4.60;;;3.13;;
3085;SDS011;52812;48.960;9.108;2022-12-26T06:06:01;3.40;;;2.73;;
3085;SDS011;52812;48.960;9.108;2022-12-26T06:08:27;3.37;;;2.80;;
3085;SDS011;52812;48.960;9.108;2022-12-26T06:10:52;5.33;;;3.37;;
3085;SDS011;52812;48.960;9.108;2022-12-26T06:13:18;3.73;;;2.90;;
3085;SDS011;52812;48.960;9.108;2022-12-26T06:15:43;3.87;;;3.40;;
3085;SDS011;52812;48.960;9.108;2022-12-26T06:18:09;4.80;;;3.07;;
3085;SDS011;52812;48.960;9.108;2022-12-26T06:20:37;3.73;;;3.10;;
3085;SDS011;52812;48.960;9.108;2022-12-26T06:23:03;3.70;;;3.10;;
3085;SDS011;52812;48.960;9.108;2022-12-26T06:25:28;4.13;;;3.20;;
3085;SDS011;52812;48.960;9.108;2022-12-26T06:27:54;3.73;;;3.30;;
3085;SDS011;52812;48.960;9.108;2022-12-26T06:30:19;5.53;;;3.30;;
3085;SDS011;52812;48.960;9.108;2022-12-26T06:32:45;3.43;;;3.13;;
3085;SDS011;52812;48.960;9.108;2022-12-26T06:35:11;5.90;;;4.20;;
3085;SDS011;52812;48.960;9.108;2022-12-26T06:37:37;2.97;;;2.67;;
3085;SDS011;52812;48.960;9.108;2022-12-26T06:40:03;4.07;;;3.60;;
3085;SDS011;52812;48.960;9.108;2022-12-26T06:42:30;5.30;;;4.33;;
3085;SDS011;52812;48.960;9.108;2022-12-26T06:44:56;6.50;;;3.60;;
3085;SDS011;52812;48.960;9.108;2022-12-26T06:47:21;4.90;;;3.30;;
3085;SDS011;52812;48.960;9.108;2022-12-26T06:49:47;3.87;;;3.07;;
3085;SDS011;52812;48.960;9.108;2022-12-26T06:52:12;3.80;;;3.13;;
3085;SDS011;52812;48.960;9.108;2022-12-26T06:54:39;3.83;;;3.43;;
3085;SDS011;52812;48.960;9.108;2022-12-26T06:57:04;6.50;;;3.90;;
3085;SDS011;52812;48.960;9.108;2022-12-26T06:59:30;4.00;;;3.33;;
3085;SDS011;52812;48.960;9.108;2022-12-26T07:01:56;5.60;;;3.53;;
3085;SDS011;52812;48.960;9.108;2022-12-26T07:04:21;4.63;;;3.40;;
3085;SDS011;52812;48.960;9.108;2022-12-26T07:06:47;4.23;;;2.90;;
3085;SDS011;52812;48.960;9.108;2022-12-26T07:09:13;5.57;;;3.60;;
3085;SDS011;52812;48.960;9.108;2022-12-26T07:11:42;4.00;;;2.77;;
3085;SDS011;52812;48.960;9.108;2022-12-26T07:14:10;3.70;;;3.23;;
3085;SDS011;52812;48.960;9.108;2022-12-26T07:16:37;4.67;;;3.47;;
3085;SDS011;52812;48.960;9.108;2022-12-26T07:19:04;4.87;;;3.40;;
3085;SDS011;52812;48.960;9.108;2022-12-26T07:21:30;4.10;;;3.37;;
3085;SDS011;52812;48.960;9.108;2022-12-26T07:23:55;5.60;;;4.60;;
3085;SDS011;52812;48.960;9.108;2022-12-26T07:26:22;7.00;;;5.77;;
3085;SDS011;52812;48.960;9.108;2022-12-26T07:28:51;5.10;;;3.87;;
3085;SDS011;52812;48.960;9.108;2022-12-26T07:31:18;4.50;;;3.33;;
3085;SDS011;52812;48.960;9.108;2022-12-26T07:33:48;4.10;;;3.50;;
3085;SDS011;52812;48.960;9.108;2022-12-26T07:36:14;4.57;;;3.50;;
3085;SDS011;52812;48.960;9.108;2022-12-26T07:38:40;3.83;;;3.20;;
3085;SDS011;52812;48.960;9.108;2022-12-26T07:41:06;5.87;;;3.87;;
3085;SDS011;52812;48.960;9.108;2022-12-26T07:43:51;4.03;;;3.30;;
3085;SDS011;52812;48.960;9.108;2022-12-26T07:46:17;4.63;;;3.33;;
3085;SDS011;52812;48.960;9.108;2022-12-26T07:48:43;3.40;;;2.83;;
3085;SDS011;52812;48.960;9.108;2022-12-26T07:51:08;5.27;;;3.73;;
3085;SDS011;52812;48.960;9.108;2022-12-26T07:53:34;5.27;;;3.60;;
3085;SDS011;52812;48.960;9.108;2022-12-26T07:55:59;5.10;;;3.90;;
3085;SDS011;52812;48.960;9.108;2022-12-26T07:58:25;3.90;;;3.37;;
3085;SDS011;52812;48.960;9.108;2022-12-26T08:00:51;3.87;;;3.13;;
3085;SDS011;52812;48.960;9.108;2022-12-26T08:03:17;6.40;;;3.83;;
3085;SDS011;52812;48.960;9.108;2022-12-26T08:05:46;4.37;;;3.57;;
3085;SDS011;52812;48.960;9.108;2022-12-26T08:08:13;4.53;;;3.50;;
3085;SDS011;52812;48.960;9.108;2022-12-26T08:10:38;6.43;;;4.80;;
3085;SDS011;52812;48.960;9.108;2022-12-26T08:13:04;6.57;;;5.07;;
3085;SDS011;52812;48.960;9.108;2022-12-26T08:15:30;6.73;;;4.80;;
3085;SDS011;52812;48.960;9.108;2022-12-26T08:17:55;6.90;;;4.90;;
3085;SDS011;52812;48.960;9.108;2022-12-26T08:20:21;7.00;;;5.33;;
3085;SDS011;52812;48.960;9.108;2022-12-26T08:22:46;7.80;;;5.93;;
3085;SDS011;52812;48.960;9.108;2022-12-26T08:25:12;7.97;;;5.70;;
3085;SDS011;52812;48.960;9.108;2022-12-26T08:27:37;6.43;;;5.00;;
3085;SDS011;52812;48.960;9.108;2022-12-26T08:30:03;8.03;;;5.50;;
3085;SDS011;52812;48.960;9.108;2022-12-26T08:32:29;8.87;;;6.87;;
3085;SDS011;52812;48.960;9.108;2022-12-26T08:34:54;15.60;;;11.43;;
3085;SDS011;52812;48.960;9.108;2022-12-26T08:37:20;28.17;;;18.63;;
3085;SDS011;52812;48.960;9.108;2022-12-26T08:39:48;20.70;;;14.90;;
3085;SDS011;52812;48.960;9.108;2022-12-26T08:42:14;16.47;;;10.30;;
3085;SDS011;52812;48.960;9.108;2022-12-26T08:44:39;9.57;;;7.70;;
3085;SDS011;52812;48.960;9.108;2022-12-26T08:47:05;9.67;;;7.67;;
3085;SDS011;52812;48.960;9.108;2022-12-26T08:49:30;10.67;;;7.80;;
3085;SDS011;52812;48.960;9.108;2022-12-26T08:51:56;10.60;;;7.30;;
3085;SDS011;52812;48.960;9.108;2022-12-26T08:54:21;10.53;;;6.83;;
3085;SDS011;52812;48.960;9.108;2022-12-26T08:56:47;9.47;;;8.10;;
3085;SDS011;52812;48.960;9.108;2022-12-26T08:59:12;8.20;;;5.73;;
3085;SDS011;52812;48.960;9.108;2022-12-26T09:01:40;8.73;;;5.53;;
3085;SDS011;52812;48.960;9.108;2022-12-26T09:04:06;9.13;;;6.20;;
3085;SDS011;52812;48.960;9.108;2022-12-26T09:06:32;6.50;;;5.27;;
3085;SDS011;52812;48.960;9.108;2022-12-26T09:09:00;6.23;;;4.37;;
3085;SDS011;52812;48.960;9.108;2022-12-26T09:11:26;5.27;;;4.23;;
3085;SDS011;52812;48.960;9.108;2022-12-26T09:13:52;6.00;;;4.03;;
3085;SDS011;52812;48.960;9.108;2022-12-26T09:16:22;6.43;;;4.97;;
3085;SDS011;52812;48.960;9.108;2022-12-26T09:18:52;4.50;;;3.40;;
3085;SDS011;52812;48.960;9.108;2022-12-26T09:21:19;5.00;;;3.73;;
3085;SDS011;52812;48.960;9.108;2022-12-26T09:23:44;5.17;;;4.00;;
3085;SDS011;52812;48.960;9.108;2022-12-26T09:26:17;5.40;;;3.67;;
3085;SDS011;52812;48.960;9.108;2022-12-26T09:28:44;3.33;;;2.90;;
3085;SDS011;52812;48.960;9.108;2022-12-26T09:31:18;3.10;;;2.80;;
3085;SDS011;52812;48.960;9.108;2022-12-26T09:33:45;4.07;;;3.23;;
3085;SDS011;52812;48.960;9.108;2022-12-26T09:36:13;4.37;;;3.20;;
3085;SDS011;52812;48.960;9.108;2022-12-26T09:38:40;3.53;;;3.20;;
3085;SDS011;52812;48.960;9.108;2022-12-26T09:41:18;3.70;;;3.00;;
3085;SDS011;52812;48.960;9.108;2022-12-26T09:43:58;4.17;;;3.50;;
3085;SDS011;52812;48.960;9.108;2022-12-26T09:49:44;3.53;;;2.80;;
3085;SDS011;52812;48.960;9.108;2022-12-26T09:52:31;3.37;;;2.77;;
3085;SDS011;52812;48.960;9.108;2022-12-26T09:55:23;3.30;;;2.63;;
3085;SDS011;52812;48.960;9.108;2022-12-26T09:58:15;3.10;;;2.40;;
3085;SDS011;52812;48.960;9.108;2022-12-26T10:03:23;2.57;;;2.37;;
3085;SDS011;52812;48.960;9.108;2022-12-26T10:06:09;2.80;;;2.50;;
3085;SDS011;52812;48.960;9.108;2022-12-26T10:11:47;2.10;;;1.90;;
3085;SDS011;52812;48.960;9.108;2022-12-26T10:20:21;1.90;;;1.70;;
3085;SDS011;52812;48.960;9.108;2022-12-26T10:23:05;2.40;;;2.10;;
3085;SDS011;52812;48.960;9.108;2022-12-26T10:25:52;2.07;;;1.70;;
3085;SDS011;52812;48.960;9.108;2022-12-26T10:31:35;2.10;;;1.90;;
3085;SDS011;52812;48.960;9.108;2022-12-26T10:34:18;3.20;;;2.30;;
3085;SDS011;52812;48.960;9.108;2022-12-26T10:42:47;3.87;;;3.40;;
3085;SDS011;52812;48.960;9.108;2022-12-26T10:45:19;3.20;;;2.60;;
3085;SDS011;52812;48.960;9.108;2022-12-26T10:48:02;4.90;;;2.43;;
3085;SDS011;52812;48.960;9.108;2022-12-26T10:50:29;2.90;;;2.47;;
3085;SDS011;52812;48.960;9.108;2022-12-26T10:52:56;3.10;;;2.63;;
3085;SDS011;52812;48.960;9.108;2022-12-26T10:55:30;3.07;;;2.50;;
3085;SDS011;52812;48.960;9.108;2022-12-26T10:58:15;3.00;;;2.50;;
3085;SDS011;52812;48.960;9.108;2022-12-26T11:00:40;2.97;;;2.30;;
3085;SDS011;52812;48.960;9.108;2022-12-26T11:03:11;2.90;;;2.30;;
3085;SDS011;52812;48.960;9.108;2022-12-26T11:05:42;3.50;;;2.63;;
3085;SDS011;52812;48.960;9.108;2022-12-26T11:08:21;3.90;;;3.00;;
3085;SDS011;52812;48.960;9.108;2022-12-26T11:11:06;2.87;;;2.40;;
3085;SDS011;52812;48.960;9.108;2022-12-26T11:13:38;2.30;;;2.10;;
3085;SDS011;52812;48.960;9.108;2022-12-26T11:16:10;2.43;;;2.23;;
3085;SDS011;52812;48.960;9.108;2022-12-26T11:18:37;3.30;;;2.10;;
3085;SDS011;52812;48.960;9.108;2022-12-26T11:21:12;5.17;;;3.10;;
3085;SDS011;52812;48.960;9.108;2022-12-26T11:23:44;5.00;;;3.43;;
3085;SDS011;52812;48.960;9.108;2022-12-26T11:31:37;6.70;;;5.00;;
3085;SDS011;52812;48.960;9.108;2022-12-26T11:34:09;13.50;;;8.50;;
3085;SDS011;52812;48.960;9.108;2022-12-26T11:36:48;23.40;;;11.63;;
3085;SDS011;52812;48.960;9.108;2022-12-26T11:39:22;26.00;;;11.70;;
3085;SDS011;52812;48.960;9.108;2022-12-26T11:41:51;20.50;;;10.27;;
3085;SDS011;52812;48.960;9.108;2022-12-26T11:44:27;7.20;;;4.20;;
3085;SDS011;52812;48.960;9.108;2022-12-26T11:57:59;3.00;;;2.30;;
3085;SDS011;52812;48.960;9.108;2022-12-26T12:03:20;2.97;;;2.00;;
3085;SDS011;52812;48.960;9.108;2022-12-26T12:09:10;2.30;;;1.80;;
3085;SDS011;52812;48.960;9.108;2022-12-26T12:20:27;2.50;;;1.40;;
3085;SDS011;52812;48.960;9.108;2022-12-26T12:33:25;1.90;;;1.67;;
3085;SDS011;52812;48.960;9.108;2022-12-26T12:36:12;2.00;;;1.40;;
3085;SDS011;52812;48.960;9.108;2022-12-26T12:44:37;1.63;;;1.53;;
3085;SDS011;52812;48.960;9.108;2022-12-26T12:47:17;1.80;;;1.60;;
3085;SDS011;52812;48.960;9.108;2022-12-26T12:50:03;1.70;;;1.50;;
3085;SDS011;52812;48.960;9.108;2022-12-26T12:53:03;1.60;;;1.50;;
3085;SDS011;52812;48.960;9.108;2022-12-26T13:00:51;1.70;;;1.53;;
3085;SDS011;52812;48.960;9.108;2022-12-26T13:03:37;1.60;;;1.50;;
3085;SDS011;52812;48.960;9.108;2022-12-26T13:09:49;1.97;;;1.40;;
3085;SDS011;52812;48.960;9.108;2022-12-26T13:12:23;1.40;;;1.30;;
3085;SDS011;52812;48.960;9.108;2022-12-26T13:14:56;1.50;;;1.37;;
3085;SDS011;52812;48.960;9.108;2022-12-26T13:17:30;1.40;;;1.30;;
3085;SDS011;52812;48.960;9.108;2022-12-26T13:22:42;1.60;;;1.50;;
3085;SDS011;52812;48.960;9.108;2022-12-26T13:25:56;1.87;;;1.60;;
3085;SDS011;52812;48.960;9.108;2022-12-26T13:28:28;2.37;;;1.73;;
3085;SDS011;52812;48.960;9.108;2022-12-26T13:30:58;2.07;;;1.50;;
3085;SDS011;52812;48.960;9.108;2022-12-26T13:33:23;2.00;;;1.80;;
3085;SDS011;52812;48.960;9.108;2022-12-26T13:35:54;1.50;;;1.40;;
3085;SDS011;52812;48.960;9.108;2022-12-26T13:38:22;1.77;;;1.53;;
3085;SDS011;52812;48.960;9.108;2022-12-26T13:40:56;1.33;;;1.23;;
3085;SDS011;52812;48.960;9.108;2022-12-26T13:44:06;1.47;;;1.30;;
3085;SDS011;52812;48.960;9.108;2022-12-26T13:54:35;1.53;;;1.33;;
3085;SDS011;52812;48.960;9.108;2022-12-26T14:05:23;1.50;;;1.40;;
3085;SDS011;52812;48.960;9.108;2022-12-26T14:08:21;1.67;;;1.57;;
3085;SDS011;52812;48.960;9.108;2022-12-26T14:16:52;3.30;;;1.77;;
3085;SDS011;52812;48.960;9.108;2022-12-26T14:19:48;1.50;;;1.40;;
3085;SDS011;52812;48.960;9.108;2022-12-26T14:25:19;1.60;;;1.40;;
3085;SDS011;52812;48.960;9.108;2022-12-26T14:28:30;3.80;;;3.20;;
3085;SDS011;52812;48.960;9.108;2022-12-26T14:36:33;4.40;;;3.40;;
3085;SDS011;52812;48.960;9.108;2022-12-26T14:44:52;5.93;;;4.03;;
3085;SDS011;52812;48.960;9.108;2022-12-26T14:47:39;3.80;;;3.37;;
3085;SDS011;52812;48.960;9.108;2022-12-26T14:53:16;3.10;;;2.40;;
3085;SDS011;52812;48.960;9.108;2022-12-26T14:58:25;3.43;;;2.53;;
3085;SDS011;52812;48.960;9.108;2022-12-26T15:00:56;2.43;;;1.80;;
3085;SDS011;52812;48.960;9.108;2022-12-26T15:03:43;2.80;;;2.10;;
3085;SDS011;52812;48.960;9.108;2022-12-26T15:09:04;3.10;;;2.77;;
3085;SDS011;52812;48.960;9.108;2022-12-26T15:17:32;4.00;;;3.10;;
3085;SDS011;52812;48.960;9.108;2022-12-26T15:20:26;2.60;;;2.40;;
3085;SDS011;52812;48.960;9.108;2022-12-26T15:23:09;5.80;;;5.13;;
3085;SDS011;52812;48.960;9.108;2022-12-26T15:25:42;13.20;;;9.10;;
3085;SDS011;52812;48.960;9.108;2022-12-26T15:28:51;17.20;;;11.20;;
3085;SDS011;52812;48.960;9.108;2022-12-26T15:36:43;10.50;;;7.00;;
3085;SDS011;52812;48.960;9.108;2022-12-26T15:39:31;11.03;;;5.27;;
3085;SDS011;52812;48.960;9.108;2022-12-26T15:47:23;4.90;;;3.90;;
3085;SDS011;52812;48.960;9.108;2022-12-26T15:50:15;3.20;;;2.60;;
3085;SDS011;52812;48.960;9.108;2022-12-26T15:56:21;2.97;;;2.13;;
3085;SDS011;52812;48.960;9.108;2022-12-26T15:58:33;2.33;;;2.13;;
3085;SDS011;52812;48.960;9.108;2022-12-26T16:01:10;2.00;;;1.80;;
3085;SDS011;52812;48.960;9.108;2022-12-26T16:06:31;3.20;;;1.90;;
3085;SDS011;52812;48.960;9.108;2022-12-26T16:09:07;6.60;;;4.63;;
3085;SDS011;52812;48.960;9.108;2022-12-26T16:11:52;7.87;;;4.13;;
3085;SDS011;52812;48.960;9.108;2022-12-26T16:14:38;5.80;;;4.20;;
3085;SDS011;52812;48.960;9.108;2022-12-26T16:19:42;6.40;;;4.50;;
3085;SDS011;52812;48.960;9.108;2022-12-26T16:22:13;7.20;;;5.17;;
3085;SDS011;52812;48.960;9.108;2022-12-26T16:25:12;6.03;;;4.63;;
3085;SDS011;52812;48.960;9.108;2022-12-26T16:27:46;9.60;;;7.47;;
3085;SDS011;52812;48.960;9.108;2022-12-26T16:30:17;10.10;;;8.30;;
3085;SDS011;52812;48.960;9.108;2022-12-26T16:32:46;7.10;;;5.80;;
3085;SDS011;52812;48.960;9.108;2022-12-26T16:35:16;5.60;;;4.40;;
3085;SDS011;52812;48.960;9.108;2022-12-26T16:37:45;7.17;;;6.07;;
3085;SDS011;52812;48.960;9.108;2022-12-26T16:40:32;6.30;;;5.20;;
3085;SDS011;52812;48.960;9.108;2022-12-26T16:45:31;5.33;;;4.80;;
3085;SDS011;52812;48.960;9.108;2022-12-26T16:47:59;6.93;;;5.23;;
3085;SDS011;52812;48.960;9.108;2022-12-26T16:50:27;8.00;;;6.03;;
3085;SDS011;52812;48.960;9.108;2022-12-26T16:59:03;5.70;;;4.50;;
3085;SDS011;52812;48.960;9.108;2022-12-26T17:01:30;5.63;;;4.33;;
3085;SDS011;52812;48.960;9.108;2022-12-26T17:03:58;5.60;;;3.30;;
3085;SDS011;52812;48.960;9.108;2022-12-26T17:06:32;3.63;;;3.20;;
3085;SDS011;52812;48.960;9.108;2022-12-26T17:09:06;6.70;;;4.17;;
3085;SDS011;52812;48.960;9.108;2022-12-26T17:11:35;5.63;;;4.03;;
3085;SDS011;52812;48.960;9.108;2022-12-26T17:14:04;6.03;;;3.63;;
3085;SDS011;52812;48.960;9.108;2022-12-26T17:16:32;4.73;;;3.53;;
3085;SDS011;52812;48.960;9.108;2022-12-26T17:19:10;5.47;;;3.60;;
3085;SDS011;52812;48.960;9.108;2022-12-26T17:24:44;3.40;;;2.40;;
3085;SDS011;52812;48.960;9.108;2022-12-26T17:32:34;2.60;;;2.20;;
3085;SDS011;52812;48.960;9.108;2022-12-26T17:37:35;3.83;;;2.20;;
3085;SDS011;52812;48.960;9.108;2022-12-26T17:40:04;3.23;;;2.30;;
3085;SDS011;52812;48.960;9.108;2022-12-26T17:42:50;4.40;;;2.33;;
3085;SDS011;52812;48.960;9.108;2022-12-26T17:45:19;2.57;;;2.13;;
3085;SDS011;52812;48.960;9.108;2022-12-26T17:47:46;2.60;;;2.00;;
3085;SDS011;52812;48.960;9.108;2022-12-26T17:50:14;4.07;;;2.70;;
3085;SDS011;52812;48.960;9.108;2022-12-26T17:52:39;11.27;;;6.23;;
3085;SDS011;52812;48.960;9.108;2022-12-26T17:55:10;11.10;;;7.27;;
3085;SDS011;52812;48.960;9.108;2022-12-26T17:57:49;22.83;;;11.50;;
3085;SDS011;52812;48.960;9.108;2022-12-26T18:00:18;21.83;;;11.83;;
3085;SDS011;52812;48.960;9.108;2022-12-26T18:02:46;12.70;;;7.17;;
3085;SDS011;52812;48.960;9.108;2022-12-26T18:05:13;7.63;;;4.60;;
3085;SDS011;52812;48.960;9.108;2022-12-26T18:07:39;4.27;;;3.40;;
3085;SDS011;52812;48.960;9.108;2022-12-26T18:10:06;4.00;;;2.53;;
3085;SDS011;52812;48.960;9.108;2022-12-26T18:12:42;4.93;;;3.10;;
3085;SDS011;52812;48.960;9.108;2022-12-26T18:15:08;3.00;;;1.80;;
3085;SDS011;52812;48.960;9.108;2022-12-26T18:17:33;2.53;;;1.80;;
3085;SDS011;52812;48.960;9.108;2022-12-26T18:20:00;2.07;;;1.80;;
3085;SDS011;52812;48.960;9.108;2022-12-26T18:22:27;1.70;;;1.57;;
3085;SDS011;52812;48.960;9.108;2022-12-26T18:24:52;1.37;;;1.27;;
3085;SDS011;52812;48.960;9.108;2022-12-26T18:27:24;2.97;;;2.30;;
3085;SDS011;52812;48.960;9.108;2022-12-26T18:29:55;2.93;;;2.60;;
3085;SDS011;52812;48.960;9.108;2022-12-26T18:32:23;1.97;;;1.87;;
3085;SDS011;52812;48.960;9.108;2022-12-26T18:34:51;2.30;;;1.70;;
3085;SDS011;52812;48.960;9.108;2022-12-26T18:37:18;1.70;;;1.60;;
3085;SDS011;52812;48.960;9.108;2022-12-26T18:39:45;3.30;;;2.20;;
3085;SDS011;52812;48.960;9.108;2022-12-26T18:42:11;2.57;;;2.10;;
3085;SDS011;52812;48.960;9.108;2022-12-26T18:44:39;3.80;;;2.27;;
3085;SDS011;52812;48.960;9.108;2022-12-26T18:47:06;3.00;;;2.20;;
3085;SDS011;52812;48.960;9.108;2022-12-26T18:49:33;4.60;;;2.90;;
3085;SDS011;52812;48.960;9.108;2022-12-26T18:51:59;8.83;;;5.30;;
3085;SDS011;52812;48.960;9.108;2022-12-26T18:54:24;6.73;;;4.70;;
3085;SDS011;52812;48.960;9.108;2022-12-26T18:56:50;8.53;;;4.60;;
3085;SDS011;52812;48.960;9.108;2022-12-26T18:59:15;6.83;;;4.63;;
3085;SDS011;52812;48.960;9.108;2022-12-26T19:01:41;10.50;;;6.20;;
3085;SDS011;52812;48.960;9.108;2022-12-26T19:04:07;7.60;;;6.23;;
3085;SDS011;52812;48.960;9.108;2022-12-26T19:06:34;8.40;;;5.70;;
3085;SDS011;52812;48.960;9.108;2022-12-26T19:08:59;2.67;;;1.60;;
3085;SDS011;52812;48.960;9.108;2022-12-26T19:11:25;1.67;;;1.57;;
3085;SDS011;52812;48.960;9.108;2022-12-26T19:13:52;2.43;;;2.03;;
3085;SDS011;52812;48.960;9.108;2022-12-26T19:16:17;6.10;;;2.40;;
3085;SDS011;52812;48.960;9.108;2022-12-26T19:18:43;3.13;;;2.30;;
3085;SDS011;52812;48.960;9.108;2022-12-26T19:21:10;1.77;;;1.67;;
3085;SDS011;52812;48.960;9.108;2022-12-26T19:23:37;2.00;;;1.80;;
3085;SDS011;52812;48.960;9.108;2022-12-26T19:26:13;3.83;;;2.10;;
3085;SDS011;52812;48.960;9.108;2022-12-26T19:28:40;4.10;;;3.07;;